Springfield, OH

3:25 AM EDT on April 28, 2017 (GMT -0400)
Springfield-Beckley Municipal

Weather History for KSGH - December, 2013

Change the Weather History Date:

Sunday, December 8, 2013

  Actual Average (KFFO) Record (KFFO)
Temperature  
Mean Temperature 22 °F -  
Max Temperature 32 °F 42 °F 55 °F (1999)
Min Temperature 12 °F 28 °F 7 °F (2006)
Degree Days  
Heating Degree Days 43    
Moisture  
Dew Point 23 °F    
Average Humidity 92    
Maximum Humidity 100    
Minimum Humidity 78    
Precipitation  
Precipitation 0.00 in - - ()
Sea Level Pressure  
Sea Level Pressure 30.20 in    
Wind  
Wind Speed 11 mph (East)    
Max Wind Speed 16 mph    
Max Gust Speed -    
Visibility 3 miles    
Events Rain , Snow    
Averages and records for this station are not official NWS values.
T = Trace of Precipitation, MM = Missing Value Source: NWS Daily Summary

Daily Weather History Graph

Daily Weather History Graph

Search for Another Location

Airport or City:

Trip Planner

Search our weather history database for the weather conditions in past years. The results will help you decide how hot, cold, wet, or windy it might be!

Date:

Astronomy

Dec. 08, 2013 Rise Set
Actual Time 7:44 AM EST 5:10 PM EST
Civil Twilight 7:14 AM EST 5:40 PM EST
Nautical Twilight 6:40 AM EST 6:14 PM EST
Astronomical Twilight 6:07 AM EST 6:47 PM EST
Moon 12:04 PM EST (12/8) 11:58 PM EST (12/8)
Length of Visible Light 10h 26m
Length of Day
9h 26m
Waxing Crescent, 40% of the Moon is Illuminated
Dec 8
Waxing Crescent
Dec 9
First Quarter
Dec 17
Full
Dec 25
Last Quarter
Jan 1
New

Hourly Weather History & Observations

Time (EST) Temp. Windchill Dew Point Humidity Pressure Visibility Wind Dir Wind Speed Gust Speed Precip Events Conditions
12:56 AM 12.0 °F 4.1 °F 10.0 °F 92% 30.56 in 7.0 mi ENE 4.6 mph - N/A   Clear
1:56 AM 15.1 °F 5.2 °F 12.0 °F 88% 30.54 in 7.0 mi East 6.9 mph - N/A   Clear
2:56 AM 18.1 °F 7.1 °F 14.0 °F 84% 30.53 in 7.0 mi East 9.2 mph - N/A   Clear
3:56 AM 19.0 °F 4.5 °F 14.0 °F 81% 30.48 in 7.0 mi East 16.1 mph - N/A   Clear
4:56 AM 19.0 °F 6.1 °F 14.0 °F 81% 30.48 in 7.0 mi East 12.7 mph - N/A   Clear
5:56 AM 20.1 °F 7.5 °F 15.1 °F 81% 30.46 in 8.0 mi ENE 12.7 mph - N/A   Partly Cloudy
6:56 AM 21.0 °F 8.1 °F 15.1 °F 78% 30.43 in 8.0 mi ENE 13.8 mph - N/A   Clear
7:56 AM 21.0 °F 9.3 °F 16.2 °F 81% 30.43 in 7.0 mi ENE 11.5 mph - N/A   Partly Cloudy
8:56 AM 21.0 °F 8.6 °F 16.2 °F 81% 30.41 in 4.0 mi East 12.7 mph - 0.00 in   Mostly Cloudy
9:03 AM 21.2 °F 8.3 °F 15.8 °F 80% 30.35 in 2.5 mi ENE 13.8 mph - N/A Snow Blowing Snow
9:07 AM 21.2 °F 8.9 °F 17.6 °F 86% 30.35 in 1.8 mi ENE 12.7 mph - 0.00 in Snow Light Snow
9:11 AM 21.2 °F 7.8 °F 17.6 °F 86% 30.35 in 1.2 mi ENE 15.0 mph - 0.00 in Snow Light Snow
9:20 AM 21.2 °F 7.3 °F 17.6 °F 86% 30.34 in 1.5 mi ENE 16.1 mph - 0.00 in Snow Light Snow
9:42 AM 21.2 °F 7.3 °F 17.6 °F 86% 30.32 in 2.5 mi ENE 16.1 mph - 0.00 in Snow Light Snow
9:49 AM 21.2 °F 8.3 °F 17.6 °F 86% 30.34 in 3.0 mi ENE 13.8 mph - 0.00 in Snow Blowing Snow
9:56 AM 22.1 °F 8.5 °F 18.1 °F 85% 30.39 in 4.0 mi ENE 16.1 mph - 0.00 in Snow Blowing Snow
10:14 AM 21.2 °F 8.3 °F 17.6 °F 86% 30.35 in 6.0 mi ENE 13.8 mph - N/A   Overcast
10:56 AM 23.0 °F 10.6 °F 20.1 °F 89% 30.38 in 2.0 mi ENE 13.8 mph - 0.00 in Snow Light Snow
11:03 AM 23.0 °F 11.1 °F 19.4 °F 86% 30.32 in 1.8 mi ENE 12.7 mph - 0.00 in Snow Light Snow
11:20 AM 23.0 °F 10.6 °F 19.4 °F 86% 30.30 in 2.0 mi ENE 13.8 mph - 0.00 in Snow Light Snow
11:43 AM 24.8 °F 12.9 °F 19.4 °F 80% 30.29 in 2.5 mi East 13.8 mph - 0.00 in Snow Blowing Snow
11:56 AM 24.1 °F 11.5 °F 21.0 °F 88% 30.33 in 1.5 mi East 15.0 mph - 0.00 in Snow Light Snow
12:04 PM 24.8 °F 12.9 °F 21.2 °F 86% 30.28 in 1.2 mi ENE 13.8 mph - 0.00 in Snow Light Snow
12:11 PM 24.8 °F 13.4 °F 21.2 °F 86% 30.27 in 1.8 mi East 12.7 mph - 0.00 in Snow Light Snow
12:19 PM 24.8 °F 12.4 °F 21.2 °F 86% 30.26 in 2.0 mi East 15.0 mph - 0.00 in Snow Light Snow
12:56 PM 25.2 °F 13.3 °F 22.1 °F 88% 30.30 in 2.0 mi ENE 13.8 mph - 0.00 in   Overcast
1:08 PM 24.8 °F 13.4 °F 21.2 °F 86% 30.23 in 2.5 mi ENE 12.7 mph - 0.00 in   Overcast
1:47 PM 24.8 °F 13.4 °F 23.0 °F 93% 30.21 in 3.0 mi East 12.7 mph - 0.00 in   Overcast
1:56 PM 25.2 °F 13.9 °F 23.0 °F 91% 30.26 in 3.0 mi East 12.7 mph - 0.00 in   Overcast
2:18 PM 26.6 °F 15.7 °F 23.0 °F 86% 30.18 in 1.8 mi East 12.7 mph - 0.00 in Snow Light Snow
2:33 PM 26.6 °F 15.7 °F 24.8 °F 93% 30.17 in 2.0 mi East 12.7 mph - 0.00 in   Overcast
2:48 PM 26.6 °F 15.2 °F 24.8 °F 93% 30.16 in 2.5 mi East 13.8 mph - 0.00 in   Overcast
2:56 PM 26.1 °F 14.5 °F 24.1 °F 92% 30.19 in 3.0 mi East 13.8 mph - 0.00 in   Overcast
3:03 PM 26.6 °F 15.7 °F 24.8 °F 93% 30.14 in 2.5 mi East 12.7 mph - N/A   Overcast
3:13 PM 26.6 °F 15.2 °F 24.8 °F 93% 30.14 in 3.0 mi East 13.8 mph - N/A   Overcast
3:24 PM 26.6 °F 15.7 °F 24.8 °F 93% 30.13 in 2.5 mi East 12.7 mph - N/A   Overcast
3:36 PM 26.6 °F 15.2 °F 24.8 °F 93% 30.13 in 3.0 mi East 13.8 mph - N/A   Overcast
3:56 PM 26.1 °F 16.2 °F 25.2 °F 96% 30.18 in 3.0 mi East 10.4 mph - N/A   Overcast
4:11 PM 26.6 °F 16.8 °F 24.8 °F 93% 30.13 in 1.8 mi East 10.4 mph - 0.00 in   Overcast
4:28 PM 26.6 °F 16.8 °F 24.8 °F 93% 30.12 in 1.5 mi East 10.4 mph - 0.00 in   Overcast
4:44 PM 26.6 °F 15.7 °F 24.8 °F 93% 30.11 in 1.0 mi East 12.7 mph - 0.00 in   Overcast
4:56 PM 26.1 °F 16.2 °F 26.1 °F 100% 30.16 in 1.0 mi East 10.4 mph - 0.00 in Rain Light Freezing Rain
5:06 PM 26.6 °F 15.2 °F 26.6 °F 100% 30.10 in 0.8 mi ESE 13.8 mph - 0.00 in Rain Light Freezing Rain
5:22 PM 26.6 °F 14.7 °F 26.6 °F 100% 30.09 in 1.0 mi East 15.0 mph - 0.00 in Rain Light Freezing Rain
5:29 PM 26.6 °F 15.2 °F 26.6 °F 100% 30.09 in 1.5 mi East 13.8 mph - 0.00 in Rain Light Freezing Rain
5:41 PM 26.6 °F 14.7 °F 26.6 °F 100% 30.08 in 2.0 mi ESE 15.0 mph - 0.00 in Rain Light Freezing Rain
5:56 PM 27.1 °F 16.4 °F 26.1 °F 96% 30.13 in 2.0 mi East 12.7 mph - 0.00 in Rain Light Freezing Rain
6:48 PM 26.6 °F 16.2 °F 26.6 °F 100% 30.07 in 1.8 mi East 11.5 mph - 0.00 in Rain Light Freezing Rain
6:56 PM 27.1 °F 17.5 °F 26.1 °F 96% 30.11 in 1.5 mi East 10.4 mph - 0.00 in Rain Light Freezing Rain
7:08 PM 26.6 °F 16.2 °F 26.6 °F 100% 30.07 in 1.5 mi ESE 11.5 mph - 0.00 in Rain Light Freezing Rain
7:31 PM 26.6 °F 17.5 °F 26.6 °F 100% 30.06 in 2.0 mi ESE 9.2 mph - 0.00 in Rain Light Freezing Rain
7:42 PM 26.6 °F 16.8 °F 26.6 °F 100% 30.06 in 1.8 mi SE 10.4 mph - 0.00 in Rain Light Freezing Rain
7:56 PM 27.1 °F 18.2 °F 27.1 °F 100% 30.09 in 1.0 mi SE 9.2 mph - 0.00 in Rain Light Freezing Rain
8:06 PM 26.6 °F 16.2 °F 26.6 °F 100% 30.05 in 1.0 mi SE 11.5 mph - 0.00 in   Overcast
8:25 PM 28.4 °F 19.1 °F 28.4 °F 100% 30.04 in 1.2 mi SE 10.4 mph - 0.00 in   Overcast
8:34 PM 28.4 °F 19.7 °F 28.4 °F 100% 30.04 in 1.8 mi SE 9.2 mph - 0.00 in   Overcast
8:47 PM 28.4 °F 19.7 °F 28.4 °F 100% 30.03 in 2.0 mi SE 9.2 mph - 0.00 in   Overcast
8:56 PM 29.1 °F 20.6 °F 28.0 °F 96% 30.07 in 2.5 mi SE 9.2 mph - 0.00 in   Overcast
9:13 PM 28.4 °F 19.7 °F 28.4 °F 100% 30.03 in 4.0 mi SSE 9.2 mph - N/A   Overcast
9:28 PM 28.4 °F 19.1 °F 28.4 °F 100% 30.03 in 2.0 mi SSE 10.4 mph - N/A   Overcast
9:56 PM 29.1 °F 22.1 °F 29.1 °F 100% 30.06 in 1.8 mi SE 6.9 mph - N/A   Overcast
10:20 PM 28.4 °F 22.2 °F 28.4 °F 100% 30.02 in 1.2 mi SSE 5.8 mph - N/A   Overcast
10:33 PM 30.2 °F 23.4 °F 30.2 °F 100% 30.01 in 1.0 mi SSE 6.9 mph - N/A   Overcast
10:42 PM 30.2 °F 23.4 °F 30.2 °F 100% 30.00 in 1.2 mi SSE 6.9 mph - N/A   Overcast
10:56 PM 31.1 °F 24.5 °F 31.1 °F 100% 30.04 in 1.5 mi SSE 6.9 mph - N/A   Overcast
11:14 PM 30.2 °F 24.3 °F 30.2 °F 100% 30.00 in 2.0 mi South 5.8 mph - N/A   Overcast
11:21 PM 30.2 °F 25.4 °F 30.2 °F 100% 30.00 in 3.0 mi South 4.6 mph - N/A   Overcast
11:30 PM 30.2 °F 23.4 °F 30.2 °F 100% 30.00 in 2.5 mi South 6.9 mph - 0.00 in Rain Light Freezing Rain
11:42 PM 32.0 °F 25.6 °F 32.0 °F 100% 30.01 in 1.5 mi South 6.9 mph - 0.00 in Rain Light Freezing Rain
11:56 PM 32.0 °F 26.4 °F 32.0 °F 100% 30.04 in 1.8 mi South 5.8 mph - 0.00 in Rain Light Freezing Rain